Truesdale, Iowa
Current Conditions -  °F | °C
As of 2:35 AM on Wednesday 22 Oct 2014 (Local Time) from KSLB Reporting Station
Few Clouds Few Clouds  
Wind Chill: 40°   Ceiling: Unl
Heat Index: 46°   Visibility: 10mi
Dew Point: 41°   Wind: 16mph
Humidity: 81%   Direction: 140°SE
Pressure: 30.12"   Gusts: NA
Location:  42.73°N, 95.18°W
Report Text: KSLB 220735Z AUTO 14014KT 10SM FEW055 08/05 A3012 RMK AO2
Loading
Personal Weather Stations






























Interactive Weather Map
Tropical Storm Tracking
New forecast layout! Learn more

10-Day Weather Forecast

Advertisements
Track Severe Weather on mobile